Time;durP1;ratioP1;P1;durP2;ratioP2;P2;SDS_P1;SDS_P2;PMS_P1;PMS_P2;Temp;Humidity;BMP_temperature;BMP_pressure;BME280_temperature;BME280_humidity;BME280_pressure;Samples;Min_cycle;Max_cycle;Signal;HPM_P1;HPM_P2
2024/04/24 00:01:10;;;;;;;11.00;6.10;;;;;;;;;;5468357;26;20007;-68
2024/04/24 00:03:40;;;;;;;11.93;6.85;;;;;;;;;;5470052;26;20017;-68
2024/04/24 00:06:11;;;;;;;10.48;6.47;;;;;;;;;;5477228;26;20005;-68
2024/04/24 00:08:43;;;;;;;11.07;7.00;;;;;;;;;;5472843;26;19998;-66
2024/04/24 00:11:13;;;;;;;12.70;6.80;;;;;;;;;;5481840;26;20002;-66
2024/04/24 00:13:44;;;;;;;10.98;6.25;;;;;;;;;;5478823;26;20002;-66
2024/04/24 00:16:14;;;;;;;11.65;6.50;;;;;;;;;;5471018;26;20751;-68
2024/04/24 00:18:44;;;;;;;10.68;6.65;;;;;;;;;;5463825;26;19994;-68
2024/04/24 00:21:14;;;;;;;12.07;6.80;;;;;;;;;;5478407;26;20018;-67
2024/04/24 00:23:47;;;;;;;10.93;6.85;;;;;;;;;;5482070;26;20017;-66
2024/04/24 00:26:17;;;;;;;11.38;6.53;;;;;;;;;;5473380;26;20837;-68
2024/04/24 00:28:47;;;;;;;11.70;7.53;;;;;;;;;;5481697;26;19997;-67
2024/04/24 00:31:18;;;;;;;10.02;6.65;;;;;;;;;;5476928;26;20021;-67
2024/04/24 00:33:48;;;;;;;11.40;6.28;;;;;;;;;;5477304;26;20009;-67
2024/04/24 00:36:18;;;;;;;11.98;6.80;;;;;;;;;;5478316;26;20017;-67
2024/04/24 00:38:51;;;;;;;11.10;6.25;;;;;;;;;;5494701;26;20035;-69
2024/04/24 00:41:21;;;;;;;12.27;6.45;;;;;;;;;;5485258;26;20020;-67
2024/04/24 00:43:52;;;;;;;11.65;6.70;;;;;;;;;;5485009;26;20016;-66
2024/04/24 00:46:23;;;;;;;11.25;6.70;;;;;;;;;;5499889;26;20077;-67
2024/04/24 00:48:54;;;;;;;11.88;6.45;;;;;;;;;;5483676;26;20012;-68
2024/04/24 00:51:25;;;;;;;11.52;7.05;;;;;;;;;;5497291;26;20328;-69
2024/04/24 00:53:58;;;;;;;11.05;6.57;;;;;;;;;;5484258;26;20015;-68
2024/04/24 00:56:28;;;;;;;10.60;6.43;;;;;;;;;;5487516;26;20024;-67
2024/04/24 00:58:58;;;;;;;11.70;6.82;;;;;;;;;;5476741;26;20013;-67
2024/04/24 01:01:28;;;;;;;9.15;5.95;;;;;;;;;;5496587;26;20009;-67
2024/04/24 01:03:58;;;;;;;12.45;6.78;;;;;;;;;;5485000;26;20075;-66
2024/04/24 01:06:28;;;;;;;11.43;7.03;;;;;;;;;;5489496;26;20010;-67
2024/04/24 01:09:01;;;;;;;12.05;6.30;;;;;;;;;;5495437;26;20074;-66
2024/04/24 01:11:33;;;;;;;11.40;6.75;;;;;;;;;;5482946;26;20400;-67
2024/04/24 01:14:04;;;;;;;13.38;7.15;;;;;;;;;;5481378;26;20030;-67
2024/04/24 01:16:36;;;;;;;11.93;6.68;;;;;;;;;;5484833;26;20034;-66
2024/04/24 01:19:05;;;;;;;10.65;6.07;;;;;;;;;;5490636;26;20012;-67
2024/04/24 01:21:39;;;;;;;12.57;6.75;;;;;;;;;;5494059;26;20048;-66
2024/04/24 01:24:13;;;;;;;9.77;6.10;;;;;;;;;;5492859;26;20041;-69
2024/04/24 01:26:48;;;;;;;10.32;6.30;;;;;;;;;;5476938;26;20456;-67
2024/04/24 01:29:19;;;;;;;12.73;5.97;;;;;;;;;;5483794;26;20002;-67
2024/04/24 01:31:49;;;;;;;10.27;6.38;;;;;;;;;;5487866;26;20017;-67
2024/04/24 01:34:19;;;;;;;12.32;6.60;;;;;;;;;;5487350;26;20013;-67
2024/04/24 01:36:49;;;;;;;10.73;6.55;;;;;;;;;;5486642;26;20328;-67
2024/04/24 01:39:19;;;;;;;13.48;6.30;;;;;;;;;;5481325;26;20443;-68
2024/04/24 01:41:52;;;;;;;10.77;6.88;;;;;;;;;;5487035;26;20002;-68
2024/04/24 01:44:22;;;;;;;10.80;6.45;;;;;;;;;;5463554;26;19998;-68
2024/04/24 01:46:52;;;;;;;11.02;6.28;;;;;;;;;;5485392;26;20017;-67
2024/04/24 01:49:23;;;;;;;12.30;6.38;;;;;;;;;;5489226;26;20002;-67
2024/04/24 01:51:53;;;;;;;9.73;5.85;;;;;;;;;;5481494;26;20021;-67
2024/04/24 01:54:23;;;;;;;11.52;6.28;;;;;;;;;;5478440;26;20003;-67
2024/04/24 01:56:56;;;;;;;9.98;5.90;;;;;;;;;;5475268;26;20011;-68
2024/04/24 01:59:26;;;;;;;11.30;6.68;;;;;;;;;;5477143;26;20451;-67
2024/04/24 02:01:56;;;;;;;11.15;6.07;;;;;;;;;;5468133;26;19998;-67
2024/04/24 02:04:26;;;;;;;11.68;6.38;;;;;;;;;;5484234;26;20475;-66
2024/04/24 02:06:56;;;;;;;11.80;6.38;;;;;;;;;;5478621;26;20072;-67
2024/04/24 02:09:26;;;;;;;10.25;6.57;;;;;;;;;;5481391;26;20070;-69
2024/04/24 02:11:59;;;;;;;10.00;6.22;;;;;;;;;;5481892;26;20707;-67
2024/04/24 02:14:43;;;;;;;10.48;6.15;;;;;;;;;;5482185;26;20370;-68
2024/04/24 02:17:10;;;;;;;11.25;6.70;;;;;;;;;;5484022;26;20002;-67
2024/04/24 02:19:42;;;;;;;11.02;5.93;;;;;;;;;;5470239;26;20015;-66
2024/04/24 02:22:12;;;;;;;11.60;7.10;;;;;;;;;;5484742;26;20475;-68
2024/04/24 02:27:31;;;;;;;12.02;6.35;;;;;;;;;;5473377;26;20599;-68
2024/04/24 02:30:01;;;;;;;13.13;6.72;;;;;;;;;;5477391;26;20002;-67
2024/04/24 02:32:31;;;;;;;8.82;6.38;;;;;;;;;;5478950;26;20003;-67
2024/04/24 02:35:01;;;;;;;11.80;7.30;;;;;;;;;;5465995;26;20056;-69
2024/04/24 02:37:31;;;;;;;10.50;6.15;;;;;;;;;;5468204;26;19994;-67
2024/04/24 02:40:05;;;;;;;11.40;7.20;;;;;;;;;;5482833;26;20025;-67
2024/04/24 02:42:38;;;;;;;11.20;6.40;;;;;;;;;;5482176;26;20404;-68
2024/04/24 02:45:09;;;;;;;11.98;7.05;;;;;;;;;;5472067;26;20017;-67
2024/04/24 02:47:39;;;;;;;11.70;7.18;;;;;;;;;;5473381;26;20331;-69
2024/04/24 02:50:09;;;;;;;9.68;6.05;;;;;;;;;;5465251;26;20002;-67
2024/04/24 02:52:39;;;;;;;11.85;6.00;;;;;;;;;;5481857;26;20375;-66
2024/04/24 02:55:10;;;;;;;10.57;6.55;;;;;;;;;;5470741;26;20021;-70
2024/04/24 02:57:42;;;;;;;12.00;6.38;;;;;;;;;;5475622;26;19998;-66
2024/04/24 03:00:13;;;;;;;9.27;5.97;;;;;;;;;;5464592;26;20007;-70
2024/04/24 03:02:43;;;;;;;10.88;6.65;;;;;;;;;;5476089;26;20324;-67
2024/04/24 03:05:14;;;;;;;11.45;6.55;;;;;;;;;;5471225;26;20078;-67
2024/04/24 03:07:44;;;;;;;12.93;7.38;;;;;;;;;;5483976;26;20002;-67
2024/04/24 03:10:14;;;;;;;11.95;7.18;;;;;;;;;;5469686;26;20452;-67
2024/04/24 03:12:47;;;;;;;11.68;6.57;;;;;;;;;;5482573;26;19998;-67
2024/04/24 03:15:17;;;;;;;11.70;6.13;;;;;;;;;;5481189;26;20006;-67
2024/04/24 03:17:47;;;;;;;10.35;6.45;;;;;;;;;;5472571;26;20403;-68
2024/04/24 03:20:17;;;;;;;12.43;7.05;;;;;;;;;;5481786;26;20017;-68
2024/04/24 03:22:47;;;;;;;10.70;6.28;;;;;;;;;;5470134;26;20071;-67
2024/04/24 03:25:18;;;;;;;10.02;6.40;;;;;;;;;;5478580;26;20001;-67
2024/04/24 03:27:50;;;;;;;11.15;6.68;;;;;;;;;;5476543;26;20078;-69
2024/04/24 03:30:20;;;;;;;14.20;8.10;;;;;;;;;;5464347;26;20316;-67
2024/04/24 03:32:51;;;;;;;11.48;6.32;;;;;;;;;;5473688;26;20014;-67
2024/04/24 03:35:21;;;;;;;11.07;6.75;;;;;;;;;;5484066;26;20013;-67
2024/04/24 03:37:51;;;;;;;12.38;7.22;;;;;;;;;;5474096;26;20390;-67
2024/04/24 03:40:21;;;;;;;10.68;6.03;;;;;;;;;;5466866;26;19997;-67
2024/04/24 03:42:54;;;;;;;10.00;6.22;;;;;;;;;;5479881;26;20075;-68
2024/04/24 03:45:24;;;;;;;10.85;5.70;;;;;;;;;;5476498;26;20014;-69
2024/04/24 03:47:55;;;;;;;12.85;6.45;;;;;;;;;;5473323;26;19994;-67
2024/04/24 03:50:25;;;;;;;12.48;6.95;;;;;;;;;;5481651;26;20078;-66
2024/04/24 03:52:55;;;;;;;12.88;6.45;;;;;;;;;;5481230;26;20138;-66
2024/04/24 03:55:25;;;;;;;10.95;6.68;;;;;;;;;;5479807;26;20002;-67
2024/04/24 03:57:58;;;;;;;12.32;6.88;;;;;;;;;;5479434;26;20447;-66
2024/04/24 04:00:28;;;;;;;10.65;6.38;;;;;;;;;;5475015;26;20002;-65
2024/04/24 04:02:58;;;;;;;15.32;8.32;;;;;;;;;;5482780;26;19998;-66
2024/04/24 04:05:28;;;;;;;11.00;6.40;;;;;;;;;;5474588;26;20038;-67
2024/04/24 04:08:00;;;;;;;14.38;7.15;;;;;;;;;;5473469;26;20447;-66
2024/04/24 04:10:30;;;;;;;11.82;6.53;;;;;;;;;;5469963;26;20078;-67
2024/04/24 04:13:04;;;;;;;12.05;6.78;;;;;;;;;;5483502;26;20010;-65
2024/04/24 04:15:34;;;;;;;11.23;6.63;;;;;;;;;;5474951;26;20017;-66
2024/04/24 04:18:04;;;;;;;12.10;6.97;;;;;;;;;;5478632;26;20075;-66
2024/04/24 04:20:35;;;;;;;10.82;6.10;;;;;;;;;;5467226;26;20082;-68
2024/04/24 04:23:05;;;;;;;11.50;6.53;;;;;;;;;;5477912;26;20009;-67
2024/04/24 04:25:35;;;;;;;10.55;6.45;;;;;;;;;;5470704;26;20042;-66
2024/04/24 04:28:08;;;;;;;11.05;6.88;;;;;;;;;;5461430;26;20456;-66
2024/04/24 04:30:38;;;;;;;12.65;7.18;;;;;;;;;;5478841;26;20001;-65
2024/04/24 04:33:09;;;;;;;11.90;6.65;;;;;;;;;;5475948;26;20002;-65
2024/04/24 04:35:39;;;;;;;14.98;7.10;;;;;;;;;;5473151;26;20246;-66
2024/04/24 04:38:09;;;;;;;12.65;7.00;;;;;;;;;;5477271;26;19998;-66
2024/04/24 04:40:39;;;;;;;11.68;6.80;;;;;;;;;;5477057;26;20018;-65
2024/04/24 04:43:12;;;;;;;12.10;7.25;;;;;;;;;;5464100;26;20024;-67
2024/04/24 04:45:42;;;;;;;11.57;6.68;;;;;;;;;;5466062;26;20010;-66
2024/04/24 04:48:12;;;;;;;11.38;6.28;;;;;;;;;;5477476;26;19994;-66
2024/04/24 04:50:42;;;;;;;13.13;7.30;;;;;;;;;;5480384;26;20014;-66
2024/04/24 04:53:13;;;;;;;12.02;7.20;;;;;;;;;;5472384;26;20475;-67
2024/04/24 04:55:43;;;;;;;12.90;6.70;;;;;;;;;;5479457;26;20017;-67
2024/04/24 04:58:16;;;;;;;11.93;7.18;;;;;;;;;;5481932;26;19998;-68
2024/04/24 05:00:46;;;;;;;11.65;6.55;;;;;;;;;;5472487;26;20094;-68
2024/04/24 05:03:16;;;;;;;10.50;6.15;;;;;;;;;;5459296;26;19998;-69
2024/04/24 05:05:46;;;;;;;10.40;5.90;;;;;;;;;;5472820;26;22905;-68
2024/04/24 05:08:16;;;;;;;13.05;7.45;;;;;;;;;;5479224;26;20009;-67
2024/04/24 05:10:46;;;;;;;11.10;6.43;;;;;;;;;;5481575;26;20013;-67
2024/04/24 05:13:19;;;;;;;12.13;6.18;;;;;;;;;;5480800;26;20320;-67
2024/04/24 05:15:50;;;;;;;12.07;6.72;;;;;;;;;;5475625;26;20010;-70
2024/04/24 05:18:20;;;;;;;11.48;6.43;;;;;;;;;;5480004;26;20010;-68
2024/04/24 05:20:54;;;;;;;11.93;6.43;;;;;;;;;;5472584;26;20007;-68
2024/04/24 05:23:24;;;;;;;11.80;6.85;;;;;;;;;;5473419;26;19994;-67
2024/04/24 05:25:55;;;;;;;11.63;6.70;;;;;;;;;;5471841;26;20464;-67
2024/04/24 05:31:18;;;;;;;11.57;6.95;;;;;;;;;;5471077;26;19999;-67
2024/04/24 05:33:48;;;;;;;12.15;6.88;;;;;;;;;;5485167;26;20002;-67
2024/04/24 05:36:19;;;;;;;12.88;7.28;;;;;;;;;;5474403;26;20010;-66
2024/04/24 05:38:46;;;;;;;12.70;7.03;;;;;;;;;;5480895;26;20057;-68
2024/04/24 05:41:16;;;;;;;10.82;6.47;;;;;;;;;;5485326;26;20568;-68
2024/04/24 05:43:49;;;;;;;12.52;7.22;;;;;;;;;;5484011;26;20014;-67
2024/04/24 05:46:19;;;;;;;12.30;7.25;;;;;;;;;;5459125;26;20018;-66
2024/04/24 05:48:50;;;;;;;10.80;6.28;;;;;;;;;;5481530;26;20074;-67
2024/04/24 05:51:20;;;;;;;13.23;6.72;;;;;;;;;;5485349;26;20022;-66
2024/04/24 05:53:50;;;;;;;11.20;6.40;;;;;;;;;;5484325;26;20035;-68
2024/04/24 05:56:20;;;;;;;9.98;6.07;;;;;;;;;;5473605;26;20010;-68
2024/04/24 05:58:53;;;;;;;10.98;6.55;;;;;;;;;;5476637;26;20002;-66
2024/04/24 06:01:23;;;;;;;12.73;6.63;;;;;;;;;;5475445;26;20451;-71
2024/04/24 06:03:54;;;;;;;13.45;7.03;;;;;;;;;;5477660;26;19999;-67
2024/04/24 06:06:24;;;;;;;11.32;6.53;;;;;;;;;;5484188;26;19998;-70
2024/04/24 06:08:54;;;;;;;10.80;6.82;;;;;;;;;;5485100;26;20094;-66
2024/04/24 06:11:24;;;;;;;10.43;6.28;;;;;;;;;;5485206;26;20449;-67
2024/04/24 06:13:57;;;;;;;12.73;7.40;;;;;;;;;;5470592;26;20352;-69
2024/04/24 06:16:27;;;;;;;10.93;6.25;;;;;;;;;;5479900;26;20426;-66
2024/04/24 06:18:58;;;;;;;10.85;6.40;;;;;;;;;;5484884;26;20006;-66
2024/04/24 06:21:28;;;;;;;13.85;6.63;;;;;;;;;;5485944;26;20471;-65
2024/04/24 06:23:59;;;;;;;10.57;6.05;;;;;;;;;;5484052;26;20486;-66
2024/04/24 06:26:29;;;;;;;11.30;6.65;;;;;;;;;;5483666;26;20012;-67
2024/04/24 06:29:03;;;;;;;12.45;6.95;;;;;;;;;;5462988;26;20013;-68
2024/04/24 06:31:33;;;;;;;10.50;6.43;;;;;;;;;;5483292;26;20010;-70
2024/04/24 06:34:04;;;;;;;12.63;6.68;;;;;;;;;;5477188;26;20034;-66
2024/04/24 06:36:34;;;;;;;10.75;6.63;;;;;;;;;;5477477;26;20010;-66
2024/04/24 06:39:05;;;;;;;11.50;6.88;;;;;;;;;;5484482;26;20042;-68
2024/04/24 06:41:35;;;;;;;10.82;6.82;;;;;;;;;;5484873;26;20014;-67
2024/04/24 06:44:08;;;;;;;10.40;6.82;;;;;;;;;;5463050;26;20023;-66
2024/04/24 06:46:38;;;;;;;12.73;6.47;;;;;;;;;;5482801;26;20003;-64
2024/04/24 06:49:08;;;;;;;12.43;6.50;;;;;;;;;;5478636;26;20459;-67
2024/04/24 06:51:38;;;;;;;9.30;5.78;;;;;;;;;;5485258;26;20643;-66
2024/04/24 06:54:08;;;;;;;12.10;7.03;;;;;;;;;;5484162;26;20008;-66
2024/04/24 06:56:39;;;;;;;11.60;6.60;;;;;;;;;;5467320;26;20025;-67
2024/04/24 06:59:12;;;;;;;20.08;7.07;;;;;;;;;;5467876;26;20020;-65
2024/04/24 07:01:42;;;;;;;10.60;6.63;;;;;;;;;;5473607;26;20515;-66
2024/04/24 07:04:12;;;;;;;13.00;6.93;;;;;;;;;;5477049;26;20006;-66
2024/04/24 07:06:42;;;;;;;11.77;6.90;;;;;;;;;;5479679;26;20020;-65
2024/04/24 07:09:13;;;;;;;12.32;7.03;;;;;;;;;;5477181;26;20464;-66
2024/04/24 07:11:43;;;;;;;10.50;6.25;;;;;;;;;;5477443;26;20009;-66
2024/04/24 07:14:16;;;;;;;10.80;6.18;;;;;;;;;;5474352;26;20002;-67
2024/04/24 07:16:46;;;;;;;10.23;6.60;;;;;;;;;;5482981;26;20016;-65
2024/04/24 07:19:16;;;;;;;8.63;5.75;;;;;;;;;;5473396;26;20000;-66
2024/04/24 07:21:46;;;;;;;12.65;6.05;;;;;;;;;;5485010;26;20070;-66
2024/04/24 07:24:16;;;;;;;11.68;6.22;;;;;;;;;;5482356;26;20002;-65
2024/04/24 07:26:47;;;;;;;10.82;6.20;;;;;;;;;;5465973;26;20081;-67
2024/04/24 07:29:20;;;;;;;10.65;6.38;;;;;;;;;;5465893;26;20534;-66
2024/04/24 07:31:50;;;;;;;9.85;6.30;;;;;;;;;;5478794;26;20010;-64
2024/04/24 07:34:20;;;;;;;11.05;6.57;;;;;;;;;;5485440;26;20013;-66
2024/04/24 07:36:50;;;;;;;9.73;5.60;;;;;;;;;;5484618;26;20517;-65
2024/04/24 07:39:20;;;;;;;8.80;5.70;;;;;;;;;;5484661;26;20467;-65
2024/04/24 07:41:50;;;;;;;9.65;6.35;;;;;;;;;;5482799;26;20005;-67
2024/04/24 07:44:23;;;;;;;10.52;6.18;;;;;;;;;;5473745;26;20014;-64
2024/04/24 07:46:53;;;;;;;10.23;5.85;;;;;;;;;;5484111;26;20002;-65
2024/04/24 07:49:24;;;;;;;10.75;5.95;;;;;;;;;;5479342;26;20462;-65
2024/04/24 07:51:54;;;;;;;10.63;6.05;;;;;;;;;;5482168;26;20535;-65
2024/04/24 07:54:24;;;;;;;8.10;5.70;;;;;;;;;;5483978;26;20369;-66
2024/04/24 07:56:54;;;;;;;9.48;5.60;;;;;;;;;;5482642;26;20521;-66
2024/04/24 07:59:27;;;;;;;9.38;5.50;;;;;;;;;;5480149;26;20470;-66
2024/04/24 08:01:57;;;;;;;9.38;5.25;;;;;;;;;;5479243;26;20051;-66
2024/04/24 08:04:27;;;;;;;12.30;5.47;;;;;;;;;;5481960;26;20021;-65
2024/04/24 08:06:57;;;;;;;9.77;5.32;;;;;;;;;;5470838;26;20076;-65
2024/04/24 08:09:28;;;;;;;7.65;5.05;;;;;;;;;;5480679;26;20010;-65
2024/04/24 08:11:58;;;;;;;8.57;5.32;;;;;;;;;;5483904;26;20026;-65
2024/04/24 08:14:29;;;;;;;8.80;5.22;;;;;;;;;;5476644;26;20411;-66
2024/04/24 08:16:59;;;;;;;6.85;4.63;;;;;;;;;;5482890;26;20404;-66
2024/04/24 08:19:29;;;;;;;7.68;4.93;;;;;;;;;;5474627;26;20014;-65
2024/04/24 08:21:59;;;;;;;5.95;4.05;;;;;;;;;;5467881;26;19999;-65
2024/04/24 08:24:30;;;;;;;8.07;4.88;;;;;;;;;;5482021;26;20111;-65
2024/04/24 08:27:00;;;;;;;7.07;4.72;;;;;;;;;;5480081;26;20010;-66
2024/04/24 08:29:33;;;;;;;7.90;4.85;;;;;;;;;;5469036;26;20025;-66
2024/04/24 08:32:03;;;;;;;6.95;4.32;;;;;;;;;;5505896;26;20033;-67
2024/04/24 08:34:33;;;;;;;9.32;5.20;;;;;;;;;;5481406;26;20006;-65
2024/04/24 08:37:03;;;;;;;6.07;4.13;;;;;;;;;;5482056;26;19998;-67
2024/04/24 08:39:34;;;;;;;7.65;4.82;;;;;;;;;;5470800;26;20054;-65
2024/04/24 08:42:05;;;;;;;5.38;4.05;;;;;;;;;;5478758;26;20030;-65
2024/04/24 08:44:38;;;;;;;7.68;4.70;;;;;;;;;;5467786;26;20013;-64
2024/04/24 08:47:08;;;;;;;7.18;4.50;;;;;;;;;;5481394;26;20078;-67
2024/04/24 08:49:39;;;;;;;6.50;3.97;;;;;;;;;;5482726;26;20006;-65
2024/04/24 08:52:10;;;;;;;7.40;4.30;;;;;;;;;;5481542;26;19998;-70
2024/04/24 08:54:41;;;;;;;6.10;4.05;;;;;;;;;;5452148;26;20011;-65
2024/04/24 08:57:13;;;;;;;7.03;4.13;;;;;;;;;;5480114;26;20010;-65
2024/04/24 08:59:49;;;;;;;5.57;4.25;;;;;;;;;;5465478;26;20002;-66
2024/04/24 09:02:21;;;;;;;5.88;3.95;;;;;;;;;;5461715;26;19999;-68
2024/04/24 09:04:53;;;;;;;6.00;3.85;;;;;;;;;;5475901;26;20382;-66
2024/04/24 09:07:25;;;;;;;7.40;4.15;;;;;;;;;;5485934;26;20030;-67
2024/04/24 09:09:56;;;;;;;7.65;4.30;;;;;;;;;;5483789;26;20013;-68
2024/04/24 09:12:27;;;;;;;6.50;4.35;;;;;;;;;;5487046;26;19998;-65
2024/04/24 09:15:00;;;;;;;6.63;4.43;;;;;;;;;;5468399;26;20534;-68
2024/04/24 09:17:31;;;;;;;4.13;3.17;;;;;;;;;;5470386;26;20002;-65
2024/04/24 09:20:01;;;;;;;5.53;3.38;;;;;;;;;;5477604;26;20006;-65
2024/04/24 09:22:31;;;;;;;6.03;3.60;;;;;;;;;;5473642;26;20034;-65
2024/04/24 09:25:02;;;;;;;4.55;3.38;;;;;;;;;;5486198;26;20103;-65
2024/04/24 09:27:32;;;;;;;4.35;3.08;;;;;;;;;;5485169;26;20006;-66
2024/04/24 09:30:05;;;;;;;6.10;2.75;;;;;;;;;;5473137;26;20013;-65
2024/04/24 09:32:36;;;;;;;4.95;3.08;;;;;;;;;;5484996;26;19998;-67
2024/04/24 09:35:07;;;;;;;4.47;3.03;;;;;;;;;;5485309;26;20002;-66
2024/04/24 09:37:37;;;;;;;6.07;3.63;;;;;;;;;;5478233;26;20013;-66
2024/04/24 09:40:10;;;;;;;5.93;2.92;;;;;;;;;;5469793;26;20006;-66
2024/04/24 09:42:40;;;;;;;6.03;3.75;;;;;;;;;;5485878;26;20044;-66
2024/04/24 09:45:13;;;;;;;5.72;3.40;;;;;;;;;;5472261;26;20003;-66
2024/04/24 09:47:44;;;;;;;5.45;3.63;;;;;;;;;;5478141;26;19998;-65
2024/04/24 09:50:15;;;;;;;4.32;2.95;;;;;;;;;;5485627;26;20002;-66
2024/04/24 09:52:48;;;;;;;6.05;3.42;;;;;;;;;;5485636;26;20013;-67
2024/04/24 09:55:18;;;;;;;4.97;3.50;;;;;;;;;;5484324;26;20076;-66
2024/04/24 09:57:52;;;;;;;5.68;3.38;;;;;;;;;;5484688;26;20020;-66
2024/04/24 10:00:25;;;;;;;5.32;3.17;;;;;;;;;;5478742;26;20078;-68
2024/04/24 10:02:56;;;;;;;4.72;3.50;;;;;;;;;;5470704;26;19998;-66
2024/04/24 10:05:27;;;;;;;5.20;3.03;;;;;;;;;;5470226;26;20038;-67
2024/04/24 10:08:10;;;;;;;5.32;3.25;;;;;;;;;;5427042;26;20002;-68
2024/04/24 10:10:43;;;;;;;4.80;3.00;;;;;;;;;;5483212;26;20017;-65
2024/04/24 10:13:13;;;;;;;5.05;3.20;;;;;;;;;;5484010;26;19998;-66
2024/04/24 10:15:48;;;;;;;5.03;3.35;;;;;;;;;;5477463;26;20002;-66
2024/04/24 10:18:18;;;;;;;5.50;3.60;;;;;;;;;;5485670;26;19998;-65
2024/04/24 10:20:49;;;;;;;4.70;3.17;;;;;;;;;;5484916;26;20470;-68
2024/04/24 10:23:19;;;;;;;6.43;3.15;;;;;;;;;;5472865;26;20079;-66
2024/04/24 10:25:50;;;;;;;6.00;3.33;;;;;;;;;;5483868;26;20320;-65
2024/04/24 10:28:21;;;;;;;5.60;3.38;;;;;;;;;;5486291;26;19998;-69
2024/04/24 10:30:56;;;;;;;4.18;3.13;;;;;;;;;;5471893;26;20393;-69
2024/04/24 10:33:28;;;;;;;4.70;3.33;;;;;;;;;;5484119;26;19998;-65
2024/04/24 10:36:00;;;;;;;4.60;2.85;;;;;;;;;;5481744;26;20013;-65
2024/04/24 10:38:33;;;;;;;4.57;2.97;;;;;;;;;;5484520;26;20443;-66
2024/04/24 10:41:04;;;;;;;4.07;3.00;;;;;;;;;;5485493;26;20002;-67
2024/04/24 10:43:36;;;;;;;4.85;3.50;;;;;;;;;;5473072;26;20002;-67
2024/04/24 10:46:09;;;;;;;5.75;3.10;;;;;;;;;;5477779;26;20573;-65
2024/04/24 10:48:56;;;;;;;4.18;3.10;;;;;;;;;;5486177;26;20009;-64
2024/04/24 10:51:30;;;;;;;4.63;3.50;;;;;;;;;;5476813;26;20351;-64
2024/04/24 10:54:15;;;;;;;3.53;2.60;;;;;;;;;;5484527;26;20002;-66
2024/04/24 10:56:45;;;;;;;5.20;3.37;;;;;;;;;;5463202;26;20002;-65
2024/04/24 10:59:16;;;;;;;6.45;3.58;;;;;;;;;;5478461;26;20459;-66
2024/04/24 11:01:49;;;;;;;4.25;2.88;;;;;;;;;;5484881;26;20048;-67
2024/04/24 11:04:25;;;;;;;4.63;2.80;;;;;;;;;;5477667;26;20006;-67
2024/04/24 11:06:56;;;;;;;6.45;2.97;;;;;;;;;;5482699;26;20010;-65
2024/04/24 11:09:27;;;;;;;3.90;3.00;;;;;;;;;;5485108;26;20078;-65
2024/04/24 11:11:58;;;;;;;3.95;2.85;;;;;;;;;;5483351;26;20010;-64
2024/04/24 11:14:29;;;;;;;3.55;2.60;;;;;;;;;;5462748;26;20010;-67
2024/04/24 11:17:02;;;;;;;3.38;2.75;;;;;;;;;;5473608;26;20593;-65
2024/04/24 11:19:32;;;;;;;5.60;3.45;;;;;;;;;;5484044;26;20101;-65
2024/04/24 11:22:03;;;;;;;4.65;2.80;;;;;;;;;;5482676;26;20074;-64
2024/04/24 11:24:34;;;;;;;4.25;2.38;;;;;;;;;;5479378;26;19998;-64
2024/04/24 11:27:06;;;;;;;4.28;2.17;;;;;;;;;;5470809;26;20351;-66
2024/04/24 11:29:40;;;;;;;3.42;2.30;;;;;;;;;;5478395;26;20065;-65
2024/04/24 11:32:14;;;;;;;2.72;2.20;;;;;;;;;;5484135;26;20002;-64
2024/04/24 11:34:44;;;;;;;3.13;2.10;;;;;;;;;;5484751;26;20001;-65
2024/04/24 11:37:15;;;;;;;4.47;2.22;;;;;;;;;;5459023;26;20078;-66
2024/04/24 11:39:45;;;;;;;3.10;2.38;;;;;;;;;;5481694;26;20075;-65
2024/04/24 11:42:16;;;;;;;2.75;2.17;;;;;;;;;;5470189;26;20009;-65
2024/04/24 11:44:46;;;;;;;2.03;1.83;;;;;;;;;;5474462;26;20368;-65
2024/04/24 11:47:21;;;;;;;4.63;1.92;;;;;;;;;;5476816;26;20078;-66
2024/04/24 11:49:49;;;;;;;2.30;1.90;;;;;;;;;;5481362;26;20009;-62
2024/04/24 11:52:20;;;;;;;2.08;1.70;;;;;;;;;;5482512;26;20419;-66
2024/04/24 11:54:52;;;;;;;2.47;1.63;;;;;;;;;;5480910;26;20324;-66
2024/04/24 11:57:22;;;;;;;3.38;1.63;;;;;;;;;;5461924;26;20007;-65
2024/04/24 11:59:53;;;;;;;2.88;1.63;;;;;;;;;;5479957;26;20400;-67
2024/04/24 12:02:26;;;;;;;4.05;1.70;;;;;;;;;;5476713;26;20079;-66
2024/04/24 12:04:56;;;;;;;3.80;2.20;;;;;;;;;;5472771;26;20061;-66
2024/04/24 12:07:28;;;;;;;3.63;1.90;;;;;;;;;;5478882;26;20002;-66
2024/04/24 12:09:59;;;;;;;2.17;1.60;;;;;;;;;;5481876;26;20002;-65
2024/04/24 12:12:29;;;;;;;2.53;1.77;;;;;;;;;;5472714;26;20006;-65
2024/04/24 12:14:59;;;;;;;2.13;1.80;;;;;;;;;;5479255;26;19994;-67
2024/04/24 12:17:32;;;;;;;2.35;1.88;;;;;;;;;;5471363;26;20021;-64
2024/04/24 12:20:03;;;;;;;2.35;1.92;;;;;;;;;;5482058;26;20500;-64
2024/04/24 12:22:36;;;;;;;2.38;2.15;;;;;;;;;;5480562;26;20009;-69
2024/04/24 12:25:07;;;;;;;2.88;2.00;;;;;;;;;;5475252;26;19998;-68
2024/04/24 12:27:38;;;;;;;4.82;2.20;;;;;;;;;;5470608;26;20013;-66
2024/04/24 12:30:09;;;;;;;2.70;2.17;;;;;;;;;;5468690;26;20002;-64
2024/04/24 12:32:42;;;;;;;2.00;1.63;;;;;;;;;;5479681;26;19998;-68
2024/04/24 12:35:12;;;;;;;3.50;1.77;;;;;;;;;;5476312;26;20006;-66
2024/04/24 12:37:42;;;;;;;3.35;2.30;;;;;;;;;;5477490;26;20328;-65
2024/04/24 12:40:14;;;;;;;2.58;1.80;;;;;;;;;;5479464;26;20017;-65
2024/04/24 12:42:44;;;;;;;2.35;2.00;;;;;;;;;;5469687;26;20014;-63
2024/04/24 12:45:14;;;;;;;2.47;1.88;;;;;;;;;;5474260;26;20815;-65
2024/04/24 12:47:47;;;;;;;4.10;1.73;;;;;;;;;;5478181;26;20014;-64
2024/04/24 12:50:18;;;;;;;3.05;2.20;;;;;;;;;;5465575;26;20355;-66
2024/04/24 12:52:48;;;;;;;2.78;2.00;;;;;;;;;;5478869;26;20006;-64
2024/04/24 12:55:19;;;;;;;2.38;1.88;;;;;;;;;;5479895;26;20312;-64
2024/04/24 12:57:49;;;;;;;2.67;2.00;;;;;;;;;;5472123;26;20007;-70
2024/04/24 13:00:20;;;;;;;2.90;1.80;;;;;;;;;;5466710;26;20013;-65
2024/04/24 13:02:53;;;;;;;5.38;2.33;;;;;;;;;;5464959;26;20867;-65
2024/04/24 13:05:23;;;;;;;4.90;2.08;;;;;;;;;;5480836;26;20014;-65
2024/04/24 13:07:53;;;;;;;4.57;2.42;;;;;;;;;;5473242;26;20623;-69
2024/04/24 13:10:24;;;;;;;2.72;2.30;;;;;;;;;;5478218;26;20002;-67
2024/04/24 13:12:54;;;;;;;2.63;1.90;;;;;;;;;;5463125;26;20012;-70
2024/04/24 13:15:24;;;;;;;2.60;2.05;;;;;;;;;;5473291;26;20014;-67
2024/04/24 13:17:57;;;;;;;2.45;2.00;;;;;;;;;;5480774;26;20493;-64
2024/04/24 13:20:27;;;;;;;2.83;1.92;;;;;;;;;;5471155;26;20075;-62
2024/04/24 13:22:58;;;;;;;3.08;2.10;;;;;;;;;;5475712;26;19998;-65
2024/04/24 13:25:28;;;;;;;1.98;1.70;;;;;;;;;;5477512;26;20042;-63
2024/04/24 13:27:58;;;;;;;2.38;2.03;;;;;;;;;;5477171;26;19998;-68
2024/04/24 13:30:28;;;;;;;2.88;2.53;;;;;;;;;;5492308;26;20013;-64
2024/04/24 13:33:01;;;;;;;4.55;2.45;;;;;;;;;;5468492;26;20531;-67
2024/04/24 13:35:31;;;;;;;3.08;2.40;;;;;;;;;;5487971;26;19997;-66
2024/04/24 13:38:01;;;;;;;3.22;2.38;;;;;;;;;;5479816;26;20006;-64
2024/04/24 13:40:31;;;;;;;4.90;2.40;;;;;;;;;;5478719;26;20001;-64
2024/04/24 13:43:02;;;;;;;4.53;2.72;;;;;;;;;;5468999;26;20002;-66
2024/04/24 13:45:32;;;;;;;2.72;2.08;;;;;;;;;;5472535;26;20071;-66
2024/04/24 13:48:05;;;;;;;3.17;2.42;;;;;;;;;;5481992;26;20082;-64
2024/04/24 13:50:35;;;;;;;4.45;2.50;;;;;;;;;;5467281;26;20017;-65
2024/04/24 13:53:07;;;;;;;2.83;2.15;;;;;;;;;;5482665;26;20002;-65
2024/04/24 13:55:38;;;;;;;3.58;2.30;;;;;;;;;;5481670;26;20064;-66
2024/04/24 13:58:08;;;;;;;5.95;2.60;;;;;;;;;;5467401;26;20413;-69
2024/04/24 14:00:38;;;;;;;3.90;2.80;;;;;;;;;;5483134;26;20002;-68
2024/04/24 14:03:11;;;;;;;2.47;2.15;;;;;;;;;;5483004;26;20007;-66
2024/04/24 14:05:44;;;;;;;2.53;2.33;;;;;;;;;;5478883;26;20393;-65
2024/04/24 14:08:14;;;;;;;3.08;2.25;;;;;;;;;;5481237;26;20002;-65
2024/04/24 14:10:44;;;;;;;3.40;2.60;;;;;;;;;;5470954;26;20298;-67
2024/04/24 14:13:15;;;;;;;3.42;2.60;;;;;;;;;;5475165;26;20006;-65
2024/04/24 14:15:42;;;;;;;3.08;2.28;;;;;;;;;;5479922;26;20087;-63
2024/04/24 14:18:15;;;;;;;5.65;2.38;;;;;;;;;;5483882;26;20400;-63
2024/04/24 14:20:45;;;;;;;3.17;1.85;;;;;;;;;;5483366;26;20324;-65
2024/04/24 14:23:16;;;;;;;3.33;2.50;;;;;;;;;;5478663;26;20013;-65
2024/04/24 14:25:46;;;;;;;3.50;2.38;;;;;;;;;;5481994;26;20451;-66
2024/04/24 14:28:17;;;;;;;4.30;2.47;;;;;;;;;;5479729;26;20002;-65
2024/04/24 14:30:47;;;;;;;3.47;2.30;;;;;;;;;;5478251;26;20075;-69
2024/04/24 14:33:20;;;;;;;4.35;2.53;;;;;;;;;;5464129;26;20106;-66
2024/04/24 14:35:50;;;;;;;3.03;2.00;;;;;;;;;;5480232;26;19998;-65
2024/04/24 14:38:22;;;;;;;7.82;2.40;;;;;;;;;;5483202;26;20074;-65
2024/04/24 14:40:54;;;;;;;3.17;2.30;;;;;;;;;;5479461;26;20002;-65
2024/04/24 14:43:25;;;;;;;3.97;2.75;;;;;;;;;;5469868;26;20093;-66
2024/04/24 14:45:55;;;;;;;4.45;2.30;;;;;;;;;;5481327;26;20013;-68
2024/04/24 14:48:27;;;;;;;3.55;2.45;;;;;;;;;;5484866;26;20002;-67
2024/04/24 14:50:58;;;;;;;2.80;2.10;;;;;;;;;;5449157;26;20015;-65
2024/04/24 14:53:28;;;;;;;4.50;2.45;;;;;;;;;;5458734;26;20070;-64
2024/04/24 14:55:58;;;;;;;4.85;2.50;;;;;;;;;;5479201;26;20401;-65
2024/04/24 14:58:29;;;;;;;4.22;2.97;;;;;;;;;;5473391;26;20011;-68
2024/04/24 15:01:03;;;;;;;4.30;2.92;;;;;;;;;;5476763;26;20002;-69
2024/04/24 15:03:36;;;;;;;4.40;3.20;;;;;;;;;;5475606;26;20034;-67